Observations for BELFAST ALDERGROVE, United Kingdom (EGAA)

EGAA 200620Z 00000KT 7000 NSC 07/05 Q1031   
EGAA 200550Z 16003KT 8000 NSC 07/05 Q1031   
EGAA 200520Z 16004KT 9000 NSC 07/05 Q1031   
EGAA 200450Z 13003KT CAVOK 06/04 Q1031  
EGAA 200420Z 00000KT CAVOK 07/05 Q1030  
EGAA 200350Z 14003KT CAVOK 07/05 Q1030  
EGAA 200320Z 14003KT CAVOK 08/05 Q1031  
EGAA 200250Z 15003KT CAVOK 08/05 Q1031  
EGAA 200220Z VRB02KT CAVOK 08/05 Q1031  
EGAA 200150Z 08002KT CAVOK 07/05 Q1031  
EGAA 200120Z 10002KT CAVOK 08/05 Q1030  
EGAA 200050Z 08003KT CAVOK 08/05 Q1030  
EGAA 200020Z 09004KT 7000 NSC 07/04 Q1030   
EGAA 192350Z 08003KT 8000 NSC 08/05 Q1031   
EGAA 192320Z 09004KT 9000 NSC 08/05 Q1031   
EGAA 192250Z 00000KT CAVOK 09/05 Q1031  
EGAA 192220Z 00000KT CAVOK 10/05 Q1030  
EGAA 192150Z 00000KT CAVOK 10/05 Q1030  
EGAA 192120Z 08004KT CAVOK 11/06 Q1030  
EGAA 192020Z 08004KT 060V120 CAVOK 13/05 Q1030  
EGAA 191950Z 15004KT CAVOK 14/06 Q1030  
EGAA 191920Z 12003KT CAVOK 15/06 Q1030  
EGAA 191850Z 14004KT CAVOK 16/06 Q1029  
EGAA 191820Z 13005KT CAVOK 16/07 Q1029  
EGAA 191750Z 13005KT CAVOK 17/07 Q1029  
EGAA 191720Z 13006KT CAVOK 17/07 Q1029  
EGAA 191650Z 13006KT CAVOK 17/08 Q1029  
EGAA 191620Z 14007KT CAVOK 18/08 Q1029  
EGAA 191550Z 14006KT CAVOK 18/09 Q1029  
EGAA 191520Z 15008KT CAVOK 18/08 Q1029  
EGAA 191450Z 13009KT CAVOK 18/08 Q1029  
EGAA 191420Z 14008KT 110V170 CAVOK 18/09 Q1029  
EGAA 191350Z 15010KT 120V180 CAVOK 18/08 Q1029  
EGAA 191320Z 14010KT CAVOK 18/09 Q1029  
EGAA 191250Z 14011KT CAVOK 18/08 Q1029  
EGAA 191220Z 15008KT 9000 NSC 18/08 Q1029   
EGAA 191150Z 14009KT 100V160 8000 NSC 17/09 Q1029   
EGAA 191120Z 14010KT 8000 NSC 17/10 Q1029   
EGAA 191050Z 13010KT 8000 NSC 17/10 Q1029   
EGAA 191020Z 14008KT 090V170 8000 NSC 17/09 Q1029   
EGAA 190950Z 14006KT 110V170 7000 NSC 16/10 Q1029   
EGAA 190920Z 12006KT 090V160 7000 NSC 16/10 Q1029   
EGAA 190850Z 10005KT 070V140 7000 NSC 16/10 Q1029   
EGAA 190820Z 09006KT 050V120 7000 NSC 14/10 Q1028   
EGAA 190750Z 08004KT 4900 NSC 13/09 Q1028   
EGAA 190720Z 04004KT 4800 HZ NSC 11/09 Q1028
EGAA 190650Z 05004KT 4800 HZ NSC 10/08 Q1028
EGAA 190620Z 07004KT 3600 HZ NSC 07/06 Q1028
EGAA 190550Z 06004KT 4000 HZ NSC 07/05 Q1028